createdAt,value
2022-12-23T00:01:16.835Z,101183.14
2022-12-23T00:04:07.012Z,101189.63
2022-12-23T00:06:57.639Z,101193.38
2022-12-23T00:09:47.850Z,101188.53
2022-12-23T00:13:11.506Z,101191.74
2022-12-23T00:16:11.895Z,101195.70
2022-12-23T00:19:02.790Z,101184.40
2022-12-23T00:21:52.924Z,101171.84
2022-12-23T00:24:43.824Z,101179.02
2022-12-23T00:27:37.832Z,101185.54
2022-12-23T00:30:29.124Z,101191.15
2022-12-23T00:33:21.647Z,101213.59
2022-12-23T00:36:19.854Z,101232.49
2022-12-23T00:39:31.857Z,101230.64
2022-12-23T00:42:39.951Z,101230.48
2022-12-23T00:45:30.898Z,101224.81
2022-12-23T00:48:39.174Z,101218.17
2022-12-23T00:51:29.606Z,101202.02
2022-12-23T00:54:20.691Z,101186.60
2022-12-23T00:57:11.571Z,101182.27
2022-12-23T01:00:02.085Z,101172.17
2022-12-23T01:03:10.641Z,101163.00
2022-12-23T01:06:02.817Z,101153.27
2022-12-23T01:08:53.776Z,101150.78
2022-12-23T01:11:44.656Z,101147.54
2022-12-23T01:14:36.104Z,101143.92
2022-12-23T01:17:26.927Z,101150.44
2022-12-23T01:20:17.954Z,101151.09
2022-12-23T01:23:08.721Z,101139.72
2022-12-23T01:26:04.106Z,101156.98
2022-12-23T01:28:56.815Z,101183.28
2022-12-23T01:31:47.067Z,101188.61
2022-12-23T01:34:37.984Z,101180.50
2022-12-23T01:37:29.234Z,101167.91
2022-12-23T01:40:20.049Z,101166.46
2022-12-23T01:43:16.675Z,101174.39
2022-12-23T01:46:07.441Z,101169.01
2022-12-23T01:48:59.552Z,101162.46
2022-12-23T01:51:50.768Z,101159.20
2022-12-23T01:54:42.449Z,101153.42
2022-12-23T01:57:33.619Z,101147.16
2022-12-23T02:00:44.761Z,101139.40
2022-12-23T02:03:45.583Z,101146.05
2022-12-23T02:06:56.908Z,101154.19
2022-12-23T02:09:48.153Z,101164.19
2022-12-23T02:12:49.896Z,101164.67
2022-12-23T02:16:04.005Z,101160.86
2022-12-23T02:19:10.584Z,101155.21
2022-12-23T02:22:33.349Z,101147.15
2022-12-23T02:25:41.544Z,101138.42
2022-12-23T02:29:01.024Z,101129.27
2022-12-23T02:31:59.673Z,101133.44
2022-12-23T02:34:55.936Z,101145.28
2022-12-23T02:37:56.891Z,101147.02
2022-12-23T02:40:57.187Z,101158.02
2022-12-23T02:43:51.295Z,101165.59
2022-12-23T02:46:47.469Z,101168.25
2022-12-23T02:49:41.497Z,101168.83
2022-12-23T02:52:35.359Z,101165.73
2022-12-23T02:55:30.181Z,101168.56
2022-12-23T02:58:24.574Z,101174.73
2022-12-23T03:01:17.744Z,101176.33
2022-12-23T03:04:08.275Z,101167.20
2022-12-23T03:07:05.879Z,101155.11
2022-12-23T03:10:09.402Z,101154.98
2022-12-23T03:13:10.718Z,101155.59
2022-12-23T03:16:14.032Z,101152.38
2022-12-23T03:19:14.245Z,101151.52
2022-12-23T03:22:11.194Z,101151.56
2022-12-23T03:25:10.376Z,101157.34
2022-12-23T03:28:06.786Z,101154.83
2022-12-23T03:31:00.700Z,101155.88
2022-12-23T03:33:55.974Z,101156.34
2022-12-23T03:36:51.630Z,101151.33
2022-12-23T03:39:46.781Z,101143.52
2022-12-23T03:42:39.850Z,101142.08
2022-12-23T03:45:39.785Z,101142.00
2022-12-23T03:48:36.976Z,101140.52
2022-12-23T03:51:31.212Z,101140.98
2022-12-23T03:54:27.084Z,101132.38
2022-12-23T03:57:19.831Z,101120.70
2022-12-23T04:00:13.162Z,101122.02
2022-12-23T04:03:12.807Z,101127.92
2022-12-23T04:06:07.526Z,101140.27
2022-12-23T04:08:59.532Z,101146.15
2022-12-23T04:11:50.952Z,101148.84
2022-12-23T04:14:49.205Z,101149.16
2022-12-23T04:17:40.373Z,101143.39
2022-12-23T04:20:30.331Z,101142.89
2022-12-23T04:23:20.933Z,101131.18
2022-12-23T04:26:11.283Z,101122.16
2022-12-23T04:29:01.820Z,101118.56
2022-12-23T04:31:51.672Z,101109.00
2022-12-23T04:34:41.652Z,101109.29
2022-12-23T04:37:31.975Z,101114.94
2022-12-23T04:40:21.556Z,101109.15
2022-12-23T04:43:11.744Z,101113.98
2022-12-23T04:46:01.842Z,101112.60
2022-12-23T04:48:52.336Z,101112.51
2022-12-23T04:51:42.669Z,101112.59
2022-12-23T04:54:32.541Z,101118.48
2022-12-23T04:57:22.992Z,101123.77
2022-12-23T05:00:15.453Z,101111.24
2022-12-23T05:03:06.289Z,101114.01
2022-12-23T05:05:56.870Z,101122.75
2022-12-23T05:08:46.928Z,101118.18
2022-12-23T05:11:41.829Z,101119.39
2022-12-23T05:14:32.021Z,101119.61
2022-12-23T05:17:21.804Z,101111.55
2022-12-23T05:20:13.623Z,101113.47
2022-12-23T05:23:03.321Z,101113.95
2022-12-23T05:25:55.843Z,101116.98
2022-12-23T05:28:45.934Z,101120.75
2022-12-23T05:31:36.532Z,101124.98
2022-12-23T05:34:26.517Z,101118.88
2022-12-23T05:37:16.396Z,101107.62
2022-12-23T05:40:07.616Z,101106.92
2022-12-23T05:42:58.329Z,101103.82
2022-12-23T05:45:50.063Z,101109.02
2022-12-23T05:48:40.634Z,101120.94
2022-12-23T05:51:30.982Z,101122.83
2022-12-23T05:54:21.922Z,101126.05
2022-12-23T05:57:13.870Z,101133.45
2022-12-23T06:00:04.845Z,101137.02
2022-12-23T06:03:02.512Z,101139.94
2022-12-23T06:05:54.985Z,101145.84
2022-12-23T06:08:45.129Z,101142.54
2022-12-23T06:11:35.566Z,101147.16
2022-12-23T06:14:29.113Z,101152.20
2022-12-23T06:17:19.441Z,101155.05
2022-12-23T06:20:19.601Z,101159.33
2022-12-23T06:23:10.510Z,101166.20
2022-12-23T06:26:03.820Z,101174.05
2022-12-23T06:28:53.948Z,101176.89
2022-12-23T06:31:43.802Z,101183.50
2022-12-23T06:34:34.390Z,101184.83
2022-12-23T06:37:24.714Z,101185.81
2022-12-23T06:40:15.956Z,101168.84
2022-12-23T06:43:06.291Z,101160.59
2022-12-23T06:45:56.580Z,101169.89
2022-12-23T06:48:46.671Z,101174.20
2022-12-23T06:51:36.861Z,101176.85
2022-12-23T06:54:27.160Z,101175.04
2022-12-23T06:57:17.342Z,101176.63
2022-12-23T07:00:09.969Z,101179.52
2022-12-23T07:03:00.096Z,101195.90
2022-12-23T07:05:52.713Z,101198.90
2022-12-23T07:08:42.764Z,101192.69
2022-12-23T07:11:33.238Z,101187.52
2022-12-23T07:14:23.567Z,101193.19
2022-12-23T07:17:14.228Z,101195.94
2022-12-23T07:20:05.193Z,101183.86
2022-12-23T07:22:57.212Z,101170.54
2022-12-23T07:25:47.219Z,101153.09
2022-12-23T07:28:37.309Z,101154.63
2022-12-23T07:31:27.348Z,101171.18
2022-12-23T07:34:17.331Z,101174.63
2022-12-23T07:37:07.503Z,101171.71
2022-12-23T07:40:03.537Z,101180.55
2022-12-23T07:42:59.651Z,101177.04
2022-12-23T07:45:53.948Z,101170.33
2022-12-23T07:48:48.007Z,101182.89
2022-12-23T07:51:37.980Z,101195.59
2022-12-23T07:54:27.899Z,101207.36
2022-12-23T07:57:18.308Z,101217.14
2022-12-23T08:00:12.416Z,101220.61
2022-12-23T08:03:02.695Z,101217.93
2022-12-23T08:06:02.703Z,101229.09
2022-12-23T08:08:52.827Z,101223.83
2022-12-23T08:11:42.716Z,101217.30
2022-12-23T08:14:32.663Z,101224.65
2022-12-23T08:17:22.907Z,101232.64
2022-12-23T08:20:14.111Z,101233.76
2022-12-23T08:23:04.307Z,101239.11
2022-12-23T08:26:02.175Z,101242.09
2022-12-23T08:28:54.021Z,101248.45
2022-12-23T08:31:44.210Z,101255.66
2022-12-23T08:34:34.879Z,101262.36
2022-12-23T08:37:26.488Z,101254.50
2022-12-23T08:40:16.891Z,101252.83
2022-12-23T08:43:07.085Z,101259.41
2022-12-23T08:45:57.168Z,101260.77
2022-12-23T08:48:49.711Z,101273.33
2022-12-23T08:51:40.332Z,101273.75
2022-12-23T08:54:30.658Z,101266.55
2022-12-23T08:57:20.582Z,101270.09
2022-12-23T09:00:13.889Z,101282.56
2022-12-23T09:03:04.030Z,101293.11
2022-12-23T09:05:54.539Z,101272.93
2022-12-23T09:08:45.116Z,101259.39
2022-12-23T09:11:36.237Z,101251.67
2022-12-23T09:14:26.743Z,101236.09
2022-12-23T09:17:17.825Z,101225.48
2022-12-23T09:20:10.507Z,101240.10
2022-12-23T09:23:02.650Z,101238.14
2022-12-23T09:25:52.931Z,101241.22
2022-12-23T09:28:44.257Z,101247.70
2022-12-23T09:31:37.384Z,101255.79
2022-12-23T09:34:28.463Z,101263.06
2022-12-23T09:37:18.682Z,101266.80
2022-12-23T09:40:12.277Z,101258.63
2022-12-23T09:43:14.449Z,101254.02
2022-12-23T09:46:15.721Z,101250.45
2022-12-23T09:49:10.514Z,101258.08
2022-12-23T09:52:06.627Z,101251.14
2022-12-23T09:54:58.050Z,101238.67
2022-12-23T09:57:56.755Z,101241.41
2022-12-23T10:00:59.874Z,101239.95
2022-12-23T10:04:06.046Z,101240.70
2022-12-23T10:07:10.508Z,101244.61
2022-12-23T10:10:05.611Z,101257.23
2022-12-23T10:12:57.057Z,101263.82
2022-12-23T10:15:49.709Z,101272.44
2022-12-23T10:18:51.647Z,101280.36
2022-12-23T10:21:47.780Z,101276.61
2022-12-23T10:24:42.880Z,101271.86
2022-12-23T10:27:37.974Z,101279.63
2022-12-23T10:33:52.669Z,101283.38
2022-12-23T10:36:54.303Z,101275.95
2022-12-23T10:39:53.485Z,101273.35
2022-12-23T10:42:57.146Z,101273.45
2022-12-23T10:45:54.822Z,101271.93
2022-12-23T10:48:57.378Z,101267.38
2022-12-23T10:51:52.295Z,101258.29
2022-12-23T10:54:46.411Z,101259.25
2022-12-23T10:57:37.321Z,101239.31
2022-12-23T11:00:28.921Z,101225.44
2022-12-23T11:03:24.707Z,101226.63
2022-12-23T11:06:16.255Z,101215.36
2022-12-23T11:09:07.823Z,101205.05
2022-12-23T11:12:03.462Z,101201.95
2022-12-23T11:14:57.857Z,101208.45
2022-12-23T11:18:01.060Z,101212.21
2022-12-23T11:21:06.279Z,101225.56
2022-12-23T11:24:18.879Z,101227.73
2022-12-23T11:27:14.554Z,101219.04
2022-12-23T11:30:05.366Z,101213.48
2022-12-23T11:32:55.909Z,101214.72
2022-12-23T11:35:47.227Z,101211.37
2022-12-23T11:38:48.418Z,101204.58
2022-12-23T11:41:41.781Z,101203.33
2022-12-23T11:44:36.075Z,101191.21
2022-12-23T11:47:36.057Z,101188.43
2022-12-23T11:50:34.533Z,101182.86
2022-12-23T11:53:25.927Z,101177.12
2022-12-23T11:56:17.510Z,101184.33
2022-12-23T11:59:10.612Z,101179.73
2022-12-23T12:02:02.818Z,101175.71
2022-12-23T12:04:59.356Z,101186.73
2022-12-23T12:07:49.825Z,101185.17
2022-12-23T12:10:42.915Z,101177.38
2022-12-23T12:13:37.875Z,101164.91
2022-12-23T12:16:45.649Z,101160.66
2022-12-23T12:19:40.834Z,101152.52
2022-12-23T12:22:40.288Z,101146.53
2022-12-23T12:25:41.025Z,101143.31
2022-12-23T12:28:38.506Z,101141.95
2022-12-23T12:31:33.522Z,101145.37
2022-12-23T12:34:38.743Z,101136.77
2022-12-23T12:37:38.939Z,101132.80
2022-12-23T12:40:35.526Z,101124.33
2022-12-23T12:43:31.598Z,101123.61
2022-12-23T12:46:31.856Z,101137.79
2022-12-23T12:49:30.585Z,101145.82
2022-12-23T12:52:25.590Z,101137.00
2022-12-23T12:55:24.972Z,101133.20
2022-12-23T12:58:23.884Z,101133.34
2022-12-23T13:01:31.415Z,101122.15
2022-12-23T13:04:43.493Z,101111.09
2022-12-23T13:07:44.565Z,101109.36
2022-12-23T13:10:44.405Z,101120.20
2022-12-23T13:13:48.755Z,101125.98
2022-12-23T13:16:48.571Z,101108.34
2022-12-23T13:19:45.544Z,101096.54
2022-12-23T13:22:38.654Z,101095.02
2022-12-23T13:25:35.120Z,101099.97
2022-12-23T13:28:41.523Z,101093.40
2022-12-23T13:31:41.656Z,101094.82
2022-12-23T13:34:42.805Z,101097.85
2022-12-23T13:37:45.075Z,101105.18
2022-12-23T13:40:45.602Z,101110.36
2022-12-23T13:43:44.967Z,101105.90
2022-12-23T13:46:50.950Z,101091.23
2022-12-23T13:49:54.066Z,101090.40
2022-12-23T13:53:02.705Z,101087.98
2022-12-23T13:56:10.116Z,101090.82
2022-12-23T13:59:00.700Z,101087.86
2022-12-23T14:01:52.943Z,101082.55
2022-12-23T14:05:01.054Z,101087.41
2022-12-23T14:07:51.689Z,101094.04
2022-12-23T14:10:51.273Z,101102.75
2022-12-23T14:13:45.303Z,101107.58
2022-12-23T14:16:50.615Z,101108.92
2022-12-23T14:19:58.989Z,101120.20
2022-12-23T14:23:02.453Z,101117.77
2022-12-23T14:26:17.152Z,101115.34
2022-12-23T14:29:22.287Z,101119.55
2022-12-23T14:32:23.243Z,101120.11
2022-12-23T14:35:24.769Z,101109.98
2022-12-23T14:38:29.035Z,101101.06
2022-12-23T14:41:40.104Z,101095.39
2022-12-23T14:44:51.724Z,101094.83
2022-12-23T14:47:46.728Z,101106.45
2022-12-23T14:50:43.424Z,101116.58
2022-12-23T14:53:34.349Z,101118.50
2022-12-23T14:56:33.187Z,101109.97
2022-12-23T14:59:33.110Z,101105.15
2022-12-23T15:02:31.694Z,101104.58
2022-12-23T15:05:25.170Z,101102.38
2022-12-23T15:08:31.251Z,101100.05
2022-12-23T15:11:27.131Z,101106.00
2022-12-23T15:14:24.266Z,101111.89
2022-12-23T15:17:29.063Z,101102.87
2022-12-23T15:20:22.496Z,101101.98
2022-12-23T15:23:15.939Z,101093.92
2022-12-23T15:26:06.482Z,101090.00
2022-12-23T15:28:56.804Z,101095.91
2022-12-23T15:31:51.899Z,101094.08
2022-12-23T15:34:42.372Z,101092.61
2022-12-23T15:37:34.732Z,101100.83
2022-12-23T15:40:29.795Z,101104.96
2022-12-23T15:43:23.884Z,101105.14
2022-12-23T15:46:26.920Z,101097.45
2022-12-23T15:49:21.390Z,101093.27
2022-12-23T15:52:19.836Z,101094.98
2022-12-23T15:55:21.516Z,101097.50
2022-12-23T15:58:23.375Z,101097.28
2022-12-23T16:01:20.153Z,101099.52
2022-12-23T16:04:19.291Z,101107.09
2022-12-23T16:07:24.264Z,101107.95
2022-12-23T16:10:21.157Z,101111.48
2022-12-23T16:13:19.755Z,101110.33
2022-12-23T16:16:32.700Z,101105.14
2022-12-23T16:19:43.498Z,101105.67
2022-12-23T16:22:36.496Z,101106.05
2022-12-23T16:26:29.217Z,101096.70
2022-12-23T16:29:19.766Z,101089.10
2022-12-23T16:32:17.240Z,101091.29
2022-12-23T16:35:25.075Z,101089.01
2022-12-23T16:38:21.393Z,101094.73
2022-12-23T16:41:11.980Z,101099.71
2022-12-23T16:44:02.907Z,101104.30
2022-12-23T16:46:54.323Z,101116.88
2022-12-23T16:49:44.363Z,101113.67
2022-12-23T16:52:35.034Z,101097.02
2022-12-23T16:55:25.140Z,101089.74
2022-12-23T16:58:15.286Z,101099.81
2022-12-23T17:01:05.339Z,101098.68
2022-12-23T17:03:57.120Z,101096.13
2022-12-23T17:06:48.594Z,101098.69
2022-12-23T17:09:39.377Z,101097.71
2022-12-23T17:12:29.957Z,101112.49
2022-12-23T17:15:24.624Z,101124.74
2022-12-23T17:18:18.677Z,101120.16
2022-12-23T17:21:12.593Z,101103.26
2022-12-23T17:24:07.760Z,101099.48
2022-12-23T17:26:58.069Z,101098.64
2022-12-23T17:29:48.373Z,101110.25
2022-12-23T17:32:38.612Z,101127.90
2022-12-23T17:35:29.194Z,101127.53
2022-12-23T17:38:19.717Z,101126.80
2022-12-23T17:41:20.954Z,101131.16
2022-12-23T17:44:14.657Z,101114.73
2022-12-23T17:47:07.050Z,101112.07
2022-12-23T17:49:57.510Z,101121.86
2022-12-23T17:52:47.824Z,101133.90
2022-12-23T17:55:37.878Z,101142.09
2022-12-23T17:58:27.943Z,101145.59
2022-12-23T18:01:21.788Z,101141.53
2022-12-23T18:04:11.925Z,101123.73
2022-12-23T18:07:01.708Z,101124.77
2022-12-23T18:09:52.455Z,101138.31
2022-12-23T18:12:46.256Z,101147.81
2022-12-23T18:15:38.605Z,101155.66
2022-12-23T18:18:41.755Z,101156.79
2022-12-23T18:21:35.903Z,101158.38
2022-12-23T18:24:26.771Z,101157.41
2022-12-23T18:27:19.437Z,101158.27
2022-12-23T18:30:11.967Z,101160.23
2022-12-23T18:33:02.328Z,101159.05
2022-12-23T18:35:52.480Z,101159.39
2022-12-23T18:38:42.773Z,101165.14
2022-12-23T18:41:33.043Z,101177.39
2022-12-23T18:44:24.591Z,101183.88
2022-12-23T18:47:15.712Z,101189.18
2022-12-23T18:50:06.906Z,101198.95
2022-12-23T18:52:57.399Z,101190.10
2022-12-23T18:55:47.242Z,101163.51
2022-12-23T18:58:37.633Z,101148.98
2022-12-23T19:01:27.870Z,101144.26
2022-12-23T19:04:18.270Z,101137.02
2022-12-23T19:07:08.211Z,101135.63
2022-12-23T19:09:58.236Z,101138.73
2022-12-23T19:12:49.347Z,101128.36
2022-12-23T19:15:39.802Z,101114.34
2022-12-23T19:18:30.036Z,101106.71
2022-12-23T19:21:21.583Z,101093.23
2022-12-23T19:24:11.787Z,101090.05
2022-12-23T19:27:02.472Z,101102.08
2022-12-23T19:29:52.170Z,101108.77
2022-12-23T19:32:42.418Z,101105.82
2022-12-23T19:35:32.685Z,101104.36
2022-12-23T19:38:22.908Z,101107.58
2022-12-23T19:41:13.714Z,101110.42
2022-12-23T19:44:04.860Z,101111.77
2022-12-23T19:46:55.542Z,101115.36
2022-12-23T19:49:45.518Z,101136.13
2022-12-23T19:52:35.761Z,101156.13
2022-12-23T19:55:25.615Z,101165.23
2022-12-23T19:58:15.274Z,101163.40
2022-12-23T20:01:14.356Z,101164.69
2022-12-23T20:04:04.533Z,101162.92
2022-12-23T20:06:54.960Z,101156.92
2022-12-23T20:09:44.921Z,101163.55
2022-12-23T20:12:34.691Z,101169.74
2022-12-23T20:15:25.290Z,101167.98
2022-12-23T20:18:15.793Z,101173.67
2022-12-23T20:21:07.118Z,101183.52
2022-12-23T20:23:57.147Z,101201.84
2022-12-23T20:26:47.794Z,101199.77
2022-12-23T20:29:38.167Z,101185.63
2022-12-23T20:32:28.530Z,101185.42
2022-12-23T20:35:18.745Z,101194.68
2022-12-23T20:38:09.149Z,101191.79
2022-12-23T20:40:58.960Z,101191.98
2022-12-23T20:44:23.302Z,101193.77
2022-12-23T20:46:59.870Z,101196.79
2022-12-23T20:49:49.781Z,101190.45
2022-12-23T20:52:40.023Z,101174.96
2022-12-23T20:55:30.446Z,101169.13
2022-12-23T20:58:38.231Z,101174.15
2022-12-23T21:01:31.268Z,101178.53
2022-12-23T21:04:22.736Z,101179.65
2022-12-23T21:07:13.595Z,101175.09
2022-12-23T21:10:04.274Z,101168.88
2022-12-23T21:12:54.079Z,101167.21
2022-12-23T21:15:44.358Z,101163.27
2022-12-23T21:18:35.115Z,101156.79
2022-12-23T21:21:27.749Z,101149.05
2022-12-23T21:24:19.136Z,101167.52
2022-12-23T21:27:09.791Z,101185.58
2022-12-23T21:30:00.352Z,101189.06
2022-12-23T21:32:50.430Z,101181.52
2022-12-23T21:35:40.565Z,101176.20
2022-12-23T21:38:34.514Z,101181.14
2022-12-23T21:41:27.615Z,101181.86
2022-12-23T21:44:19.863Z,101192.39
2022-12-23T21:47:09.881Z,101205.20
2022-12-23T21:49:59.743Z,101208.04
2022-12-23T21:52:50.278Z,101196.30
2022-12-23T21:55:40.694Z,101190.15
2022-12-23T21:58:30.659Z,101178.83
2022-12-23T22:01:21.818Z,101168.95
2022-12-23T22:04:12.236Z,101176.64
2022-12-23T22:07:02.266Z,101178.41
2022-12-23T22:09:52.459Z,101167.19
2022-12-23T22:12:42.879Z,101171.17
2022-12-23T22:15:33.610Z,101179.70
2022-12-23T22:18:23.963Z,101184.95
2022-12-23T22:21:17.081Z,101183.24
2022-12-23T22:24:09.094Z,101183.80
2022-12-23T22:26:59.433Z,101190.10
2022-12-23T22:29:49.421Z,101184.60
2022-12-23T22:32:42.515Z,101181.67
2022-12-23T22:35:32.962Z,101179.60
2022-12-23T22:38:24.033Z,101178.60
2022-12-23T22:41:16.226Z,101177.48
2022-12-23T22:44:06.798Z,101169.73
2022-12-23T22:46:57.136Z,101174.77
2022-12-23T22:49:47.221Z,101177.89
2022-12-23T22:52:37.400Z,101169.29
2022-12-23T22:55:27.736Z,101169.54
2022-12-23T22:58:18.003Z,101171.35
2022-12-23T23:01:17.168Z,101178.92
2022-12-23T23:04:08.036Z,101179.26
2022-12-23T23:06:58.178Z,101183.27
2022-12-23T23:09:48.728Z,101182.41
2022-12-23T23:12:38.817Z,101178.72
2022-12-23T23:15:29.270Z,101174.30
2022-12-23T23:18:19.338Z,101169.13
2022-12-23T23:21:11.059Z,101166.17
2022-12-23T23:24:04.535Z,101171.03
2022-12-23T23:26:54.455Z,101174.77
2022-12-23T23:29:44.652Z,101182.19
2022-12-23T23:32:34.544Z,101182.28
2022-12-23T23:35:24.401Z,101175.58
2022-12-23T23:38:15.071Z,101166.52
2022-12-23T23:41:05.741Z,101158.50
2022-12-23T23:43:56.024Z,101159.01
2022-12-23T23:46:48.694Z,101155.69
2022-12-23T23:49:39.380Z,101151.02
2022-12-23T23:52:30.215Z,101145.72
2022-12-23T23:55:21.217Z,101148.56
2022-12-23T23:58:13.325Z,101153.89
